Tinley Park, IL

01:55 CDT 26. Říjen 2014 (GMT -0500)
Gary / Chicago | Change Station
CLOSE
Current Station
Letiště
Location: Gary,
Nadmořská výška: 591 ft
Poblíž povětrnostní stanice

Výška 591 ft 41.62 °N, 87.41 °W | Updated 20 minutes ago

Jasno
Jasno
52 °F
Pocit jako 52 °F
S
7
Vítr proměnlivý Vítr od západní

Dnes
Vysoké -- | Nízké -- °F
--% Možnost srážek
Včera
Vysoké -- | Nízké -- °F
Precip. -- inčů
7:15 AM 5:53 PM
Dorůstající srpek, 6% visible
Tlak 29.98 inčů
Viditelnost 10.0 mílí
Zataženo Jasno
Rosný bod 31 °F
Vlhkost 45%
Dešťové srážky 0.00 inčů
Sněhová pokrývka Není k dispozici
UV záření 0 ze 12
Pyl 1.60 ze 12
Ozón Dobrý
PM2.5 Dobrý
Flu Activity No Activity
METAR KGYY 260635Z AUTO 27006KT 10SM CLR 11/M01 A2998 RMK AO2 T01101006

More Conditions Fewer Conditions

Tlak 29.98 inčů
Viditelnost 10.0 mílí
Zataženo Jasno
Rosný bod 31 °F
Vlhkost 45%
Dešťové srážky 0.00 inčů
Sněhová pokrývka Není k dispozici
UV záření 0 ze 12
Pyl 1.60 ze 12
Ozón Dobrý
PM2.5 Dobrý
Flu Activity No Activity
METAR KGYY 260635Z AUTO 27006KT 10SM CLR 11/M01 A2998 RMK AO2 T01101006

More Conditions Fewer Conditions

10-Day Weather Forecast

Almanac

Astronomie

Oct. 26, 2014 Východ Západ
Skutečný čas 07:15 CDT 17:53 CDT
Občanský soumrak 06:47 CDT 18:22 CDT
Námořní soumrak 06:14 CDT 18:54 CDT
Astronomický soumrak 05:42 CDT 19:26 CDT
Měsíc 09:55 CDT 20:03 CDT
Délka denního světla 11h 34m
Délka dne
10h 37m
Tomorrow will be 2m 33s shorter.
Dorůstající srpek, 6% of the Moon is Illuminated
Dnes
Dorůstající srpek
Říj 30
První čtvrť
Lis 6
Úplněk
Lis 14
Ubývající
Lis 22
Nov

Dnešní extrémy

State Highs State Lows

Community

WunderPhotos

Upload Photos

1,765,117 snímků staženo!

Nearby

Kvalita ovzduší

  Kvalita ovzduší Index kvality ovzduší Polutant
Včera Střední
PM2.5
Včera Dobrý
OZONE
Nyní Dobrý
OZONE
Nyní Dobrý
PM2.5
Neděle Dobrý
PM2.5
Pondělí Střední
PM2.5
Úterý Dobrý
PM2.5
Středa Dobrý
PM2.5

Výška sněhu

Station Hloubka Nadmořská výška
Žádný nový sníh nebyl hlášen

Seizmická činnost

Město Distance Mag. Čas & datum
Žádné zemětřesení v okolí nebylo hlášeno
Minimální zobrazený rozsah je 2.5.

Pobřežní teplota vody

Lokalita Teplota
Stanice nic nehlásí

Poblíž povětrnostní stanice